Terminal Aerodrome Forecast
Issued by NWS

Home | Current Version | Previous Version | Text Only | Print | Product List | Glossary Off
Versions: 1 2 3 4 5 6 7 8 9 10 11 12 13 14 15 16 17 18 19 20 21 22

000
FTUS43 KGRB 202038 AAA
TAFMTW
TAF AMD
KMTW 202038Z 2021/2118 16015G28KT P6SM SCT015 BKN080
     FM210100 17006KT P6SM VCSH SCT020 BKN035
      TEMPO 2101/2105 4SM TSRA BKN015CB
     FM210700 29004KT 4SM BR BKN015 BKN025
     FM210900 01006KT 3SM BR BKN008 BKN015
     FM211500 09007KT 6SM BR BKN015=

USA.gov is the U.S. government's official web portal to all federal, state and local government web resources and services.